sensor_id;sensor_type;location;lat;lon;timestamp;P1;durP1;ratioP1;P2;durP2;ratioP2
51312;SDS011;37397;53.226;10.400;2023-03-01T00:02:11;14.00;;;8.07;;
51312;SDS011;37397;53.226;10.400;2023-03-01T00:04:38;15.70;;;8.70;;
51312;SDS011;37397;53.226;10.400;2023-03-01T00:07:04;15.85;;;8.30;;
51312;SDS011;37397;53.226;10.400;2023-03-01T00:09:30;15.45;;;8.30;;
51312;SDS011;37397;53.226;10.400;2023-03-01T00:11:57;12.48;;;7.55;;
51312;SDS011;37397;53.226;10.400;2023-03-01T00:14:23;14.65;;;8.30;;
51312;SDS011;37397;53.226;10.400;2023-03-01T00:16:50;15.98;;;9.02;;
51312;SDS011;37397;53.226;10.400;2023-03-01T00:19:17;13.43;;;8.10;;
51312;SDS011;37397;53.226;10.400;2023-03-01T00:21:45;13.75;;;7.10;;
51312;SDS011;37397;53.226;10.400;2023-03-01T00:24:12;14.38;;;7.93;;
51312;SDS011;37397;53.226;10.400;2023-03-01T00:26:38;13.70;;;7.78;;
51312;SDS011;37397;53.226;10.400;2023-03-01T00:29:05;12.85;;;7.18;;
51312;SDS011;37397;53.226;10.400;2023-03-01T00:31:32;14.95;;;8.35;;
51312;SDS011;37397;53.226;10.400;2023-03-01T00:34:01;14.88;;;7.70;;
51312;SDS011;37397;53.226;10.400;2023-03-01T00:36:31;13.18;;;7.47;;
51312;SDS011;37397;53.226;10.400;2023-03-01T00:39:00;12.63;;;7.45;;
51312;SDS011;37397;53.226;10.400;2023-03-01T00:41:27;16.10;;;7.45;;
51312;SDS011;37397;53.226;10.400;2023-03-01T00:43:54;13.88;;;6.60;;
51312;SDS011;37397;53.226;10.400;2023-03-01T00:46:22;13.77;;;7.75;;
51312;SDS011;37397;53.226;10.400;2023-03-01T00:48:50;12.45;;;7.25;;
51312;SDS011;37397;53.226;10.400;2023-03-01T00:51:18;14.57;;;7.45;;
51312;SDS011;37397;53.226;10.400;2023-03-01T00:53:50;14.65;;;7.53;;
51312;SDS011;37397;53.226;10.400;2023-03-01T00:56:18;12.95;;;7.28;;
51312;SDS011;37397;53.226;10.400;2023-03-01T00:58:45;14.05;;;7.85;;
51312;SDS011;37397;53.226;10.400;2023-03-01T01:01:13;15.55;;;7.22;;
51312;SDS011;37397;53.226;10.400;2023-03-01T01:03:51;14.02;;;7.38;;
51312;SDS011;37397;53.226;10.400;2023-03-01T01:08:49;17.45;;;7.47;;
51312;SDS011;37397;53.226;10.400;2023-03-01T01:11:16;11.75;;;6.82;;
51312;SDS011;37397;53.226;10.400;2023-03-01T01:13:44;12.60;;;7.10;;
51312;SDS011;37397;53.226;10.400;2023-03-01T01:16:12;12.63;;;6.93;;
51312;SDS011;37397;53.226;10.400;2023-03-01T01:18:39;12.15;;;6.63;;
51312;SDS011;37397;53.226;10.400;2023-03-01T01:21:08;11.90;;;6.40;;
51312;SDS011;37397;53.226;10.400;2023-03-01T01:23:37;13.27;;;6.72;;
51312;SDS011;37397;53.226;10.400;2023-03-01T01:26:15;12.30;;;6.82;;
51312;SDS011;37397;53.226;10.400;2023-03-01T01:28:44;12.82;;;6.57;;
51312;SDS011;37397;53.226;10.400;2023-03-01T01:31:11;11.55;;;6.80;;
51312;SDS011;37397;53.226;10.400;2023-03-01T01:33:38;12.77;;;6.90;;
51312;SDS011;37397;53.226;10.400;2023-03-01T01:36:05;11.57;;;6.45;;
51312;SDS011;37397;53.226;10.400;2023-03-01T01:38:33;12.80;;;6.50;;
51312;SDS011;37397;53.226;10.400;2023-03-01T01:41:00;12.57;;;6.30;;
51312;SDS011;37397;53.226;10.400;2023-03-01T01:43:33;12.43;;;7.03;;
51312;SDS011;37397;53.226;10.400;2023-03-01T01:46:31;11.18;;;6.68;;
51312;SDS011;37397;53.226;10.400;2023-03-01T01:49:00;12.73;;;6.30;;
51312;SDS011;37397;53.226;10.400;2023-03-01T01:51:31;11.15;;;6.15;;
51312;SDS011;37397;53.226;10.400;2023-03-01T01:54:12;11.50;;;6.50;;
51312;SDS011;37397;53.226;10.400;2023-03-01T01:56:46;10.93;;;6.15;;
51312;SDS011;37397;53.226;10.400;2023-03-01T01:59:18;11.70;;;6.50;;
51312;SDS011;37397;53.226;10.400;2023-03-01T02:01:44;15.98;;;6.57;;
51312;SDS011;37397;53.226;10.400;2023-03-01T02:04:11;10.25;;;5.80;;
51312;SDS011;37397;53.226;10.400;2023-03-01T02:06:39;11.70;;;6.72;;
51312;SDS011;37397;53.226;10.400;2023-03-01T02:09:13;11.52;;;6.45;;
51312;SDS011;37397;53.226;10.400;2023-03-01T02:11:42;12.57;;;6.32;;
51312;SDS011;37397;53.226;10.400;2023-03-01T02:14:10;9.98;;;6.10;;
51312;SDS011;37397;53.226;10.400;2023-03-01T02:16:36;9.13;;;5.68;;
51312;SDS011;37397;53.226;10.400;2023-03-01T02:19:03;11.32;;;6.13;;
51312;SDS011;37397;53.226;10.400;2023-03-01T02:27:11;13.60;;;5.97;;
51312;SDS011;37397;53.226;10.400;2023-03-01T02:29:38;11.73;;;5.15;;
51312;SDS011;37397;53.226;10.400;2023-03-01T02:32:05;10.88;;;6.00;;
51312;SDS011;37397;53.226;10.400;2023-03-01T02:34:32;12.05;;;6.30;;
51312;SDS011;37397;53.226;10.400;2023-03-01T02:37:03;10.20;;;6.00;;
51312;SDS011;37397;53.226;10.400;2023-03-01T02:39:39;11.48;;;5.82;;
51312;SDS011;37397;53.226;10.400;2023-03-01T02:42:10;12.60;;;5.95;;
51312;SDS011;37397;53.226;10.400;2023-03-01T02:44:39;10.07;;;5.53;;
51312;SDS011;37397;53.226;10.400;2023-03-01T02:47:05;9.95;;;5.78;;
51312;SDS011;37397;53.226;10.400;2023-03-01T02:49:33;9.73;;;5.40;;
51312;SDS011;37397;53.226;10.400;2023-03-01T02:52:06;11.32;;;5.72;;
51312;SDS011;37397;53.226;10.400;2023-03-01T02:57:40;10.45;;;5.20;;
51312;SDS011;37397;53.226;10.400;2023-03-01T03:00:13;10.27;;;5.60;;
51312;SDS011;37397;53.226;10.400;2023-03-01T03:02:48;10.68;;;5.40;;
51312;SDS011;37397;53.226;10.400;2023-03-01T03:05:19;9.18;;;5.03;;
51312;SDS011;37397;53.226;10.400;2023-03-01T03:07:51;11.07;;;5.80;;
51312;SDS011;37397;53.226;10.400;2023-03-01T03:10:19;8.88;;;5.18;;
51312;SDS011;37397;53.226;10.400;2023-03-01T03:12:51;10.68;;;5.63;;
51312;SDS011;37397;53.226;10.400;2023-03-01T03:15:20;8.65;;;5.53;;
51312;SDS011;37397;53.226;10.400;2023-03-01T03:17:47;9.43;;;5.43;;
51312;SDS011;37397;53.226;10.400;2023-03-01T03:20:15;10.23;;;5.40;;
51312;SDS011;37397;53.226;10.400;2023-03-01T03:22:49;9.80;;;4.72;;
51312;SDS011;37397;53.226;10.400;2023-03-01T03:25:17;8.70;;;5.15;;
51312;SDS011;37397;53.226;10.400;2023-03-01T03:27:46;10.93;;;5.22;;
51312;SDS011;37397;53.226;10.400;2023-03-01T03:30:16;8.98;;;5.03;;
51312;SDS011;37397;53.226;10.400;2023-03-01T03:32:45;9.15;;;5.10;;
51312;SDS011;37397;53.226;10.400;2023-03-01T03:35:20;9.07;;;5.18;;
51312;SDS011;37397;53.226;10.400;2023-03-01T03:37:47;7.93;;;4.63;;
51312;SDS011;37397;53.226;10.400;2023-03-01T03:40:37;9.27;;;4.85;;
51312;SDS011;37397;53.226;10.400;2023-03-01T03:43:13;9.40;;;5.13;;
51312;SDS011;37397;53.226;10.400;2023-03-01T03:45:41;8.93;;;4.70;;
51312;SDS011;37397;53.226;10.400;2023-03-01T03:48:09;9.95;;;5.03;;
51312;SDS011;37397;53.226;10.400;2023-03-01T03:50:36;11.00;;;5.85;;
51312;SDS011;37397;53.226;10.400;2023-03-01T03:53:05;8.35;;;4.88;;
51312;SDS011;37397;53.226;10.400;2023-03-01T03:55:33;8.82;;;5.18;;
51312;SDS011;37397;53.226;10.400;2023-03-01T03:58:01;9.90;;;5.10;;
51312;SDS011;37397;53.226;10.400;2023-03-01T04:00:36;9.63;;;4.63;;
51312;SDS011;37397;53.226;10.400;2023-03-01T04:03:05;9.68;;;4.82;;
51312;SDS011;37397;53.226;10.400;2023-03-01T04:05:32;8.02;;;4.22;;
51312;SDS011;37397;53.226;10.400;2023-03-01T04:07:59;8.30;;;4.10;;
51312;SDS011;37397;53.226;10.400;2023-03-01T04:10:29;9.48;;;4.53;;
51312;SDS011;37397;53.226;10.400;2023-03-01T04:12:58;8.80;;;4.07;;
51312;SDS011;37397;53.226;10.400;2023-03-01T04:15:25;7.93;;;4.68;;
51312;SDS011;37397;53.226;10.400;2023-03-01T04:17:53;9.65;;;5.10;;
51312;SDS011;37397;53.226;10.400;2023-03-01T04:20:23;11.57;;;4.97;;
51312;SDS011;37397;53.226;10.400;2023-03-01T04:25:47;9.40;;;4.93;;
51312;SDS011;37397;53.226;10.400;2023-03-01T04:28:22;7.63;;;4.50;;
51312;SDS011;37397;53.226;10.400;2023-03-01T04:30:57;7.65;;;4.28;;
51312;SDS011;37397;53.226;10.400;2023-03-01T04:33:24;9.65;;;4.70;;
51312;SDS011;37397;53.226;10.400;2023-03-01T04:35:51;9.05;;;4.60;;
51312;SDS011;37397;53.226;10.400;2023-03-01T04:38:19;8.63;;;4.50;;
51312;SDS011;37397;53.226;10.400;2023-03-01T04:40:47;6.72;;;3.83;;
51312;SDS011;37397;53.226;10.400;2023-03-01T04:43:14;7.07;;;4.60;;
51312;SDS011;37397;53.226;10.400;2023-03-01T04:45:40;8.05;;;4.60;;
51312;SDS011;37397;53.226;10.400;2023-03-01T04:48:07;7.72;;;4.13;;
51312;SDS011;37397;53.226;10.400;2023-03-01T04:50:34;8.85;;;4.60;;
51312;SDS011;37397;53.226;10.400;2023-03-01T04:53:01;8.82;;;4.10;;
51312;SDS011;37397;53.226;10.400;2023-03-01T04:55:28;8.95;;;4.22;;
51312;SDS011;37397;53.226;10.400;2023-03-01T04:57:55;8.13;;;4.18;;
51312;SDS011;37397;53.226;10.400;2023-03-01T05:00:22;8.65;;;4.15;;
51312;SDS011;37397;53.226;10.400;2023-03-01T05:02:50;8.00;;;4.00;;
51312;SDS011;37397;53.226;10.400;2023-03-01T05:05:42;7.55;;;3.67;;
51312;SDS011;37397;53.226;10.400;2023-03-01T05:08:07;9.50;;;4.35;;
51312;SDS011;37397;53.226;10.400;2023-03-01T05:10:35;6.68;;;3.90;;
51312;SDS011;37397;53.226;10.400;2023-03-01T05:13:02;7.90;;;4.07;;
51312;SDS011;37397;53.226;10.400;2023-03-01T05:15:30;7.88;;;3.72;;
51312;SDS011;37397;53.226;10.400;2023-03-01T05:17:58;9.95;;;4.00;;
51312;SDS011;37397;53.226;10.400;2023-03-01T05:20:28;8.25;;;3.92;;
51312;SDS011;37397;53.226;10.400;2023-03-01T05:22:57;7.93;;;3.92;;
51312;SDS011;37397;53.226;10.400;2023-03-01T05:25:26;7.90;;;3.45;;
51312;SDS011;37397;53.226;10.400;2023-03-01T05:27:52;7.43;;;3.78;;
51312;SDS011;37397;53.226;10.400;2023-03-01T05:30:19;8.45;;;4.40;;
51312;SDS011;37397;53.226;10.400;2023-03-01T05:32:46;7.82;;;4.07;;
51312;SDS011;37397;53.226;10.400;2023-03-01T05:35:16;7.93;;;4.05;;
51312;SDS011;37397;53.226;10.400;2023-03-01T05:37:44;8.60;;;4.07;;
51312;SDS011;37397;53.226;10.400;2023-03-01T05:40:13;10.00;;;4.43;;
51312;SDS011;37397;53.226;10.400;2023-03-01T05:42:45;10.98;;;4.90;;
51312;SDS011;37397;53.226;10.400;2023-03-01T05:45:16;9.13;;;4.43;;
51312;SDS011;37397;53.226;10.400;2023-03-01T05:47:44;9.10;;;4.65;;
51312;SDS011;37397;53.226;10.400;2023-03-01T05:52:46;9.48;;;4.65;;
51312;SDS011;37397;53.226;10.400;2023-03-01T05:55:15;10.52;;;4.60;;
51312;SDS011;37397;53.226;10.400;2023-03-01T05:57:43;10.38;;;4.93;;
51312;SDS011;37397;53.226;10.400;2023-03-01T06:00:09;8.55;;;4.40;;
51312;SDS011;37397;53.226;10.400;2023-03-01T06:02:39;8.95;;;4.30;;
51312;SDS011;37397;53.226;10.400;2023-03-01T06:05:07;11.00;;;4.00;;
51312;SDS011;37397;53.226;10.400;2023-03-01T06:07:36;9.02;;;3.85;;
51312;SDS011;37397;53.226;10.400;2023-03-01T06:10:03;8.15;;;4.18;;
51312;SDS011;37397;53.226;10.400;2023-03-01T06:12:31;7.72;;;3.80;;
51312;SDS011;37397;53.226;10.400;2023-03-01T06:14:59;6.75;;;3.22;;
51312;SDS011;37397;53.226;10.400;2023-03-01T06:17:26;7.03;;;3.88;;
51312;SDS011;37397;53.226;10.400;2023-03-01T06:19:55;7.05;;;3.67;;
51312;SDS011;37397;53.226;10.400;2023-03-01T06:22:22;6.85;;;3.80;;
51312;SDS011;37397;53.226;10.400;2023-03-01T06:24:48;7.53;;;3.60;;
51312;SDS011;37397;53.226;10.400;2023-03-01T06:27:15;6.03;;;3.42;;
51312;SDS011;37397;53.226;10.400;2023-03-01T06:29:42;8.00;;;4.18;;
51312;SDS011;37397;53.226;10.400;2023-03-01T06:32:09;8.27;;;3.63;;
51312;SDS011;37397;53.226;10.400;2023-03-01T06:34:35;5.68;;;3.10;;
51312;SDS011;37397;53.226;10.400;2023-03-01T06:37:02;7.75;;;3.30;;
51312;SDS011;37397;53.226;10.400;2023-03-01T06:39:31;6.63;;;3.40;;
51312;SDS011;37397;53.226;10.400;2023-03-01T06:41:59;7.00;;;3.25;;
51312;SDS011;37397;53.226;10.400;2023-03-01T06:44:26;7.65;;;3.50;;
51312;SDS011;37397;53.226;10.400;2023-03-01T06:46:53;7.05;;;3.00;;
51312;SDS011;37397;53.226;10.400;2023-03-01T06:49:19;6.95;;;3.30;;
51312;SDS011;37397;53.226;10.400;2023-03-01T06:51:47;13.48;;;3.65;;
51312;SDS011;37397;53.226;10.400;2023-03-01T06:54:13;7.22;;;3.72;;
51312;SDS011;37397;53.226;10.400;2023-03-01T06:56:39;9.38;;;3.20;;
51312;SDS011;37397;53.226;10.400;2023-03-01T06:59:06;6.70;;;3.47;;
51312;SDS011;37397;53.226;10.400;2023-03-01T07:01:32;7.88;;;4.20;;
51312;SDS011;37397;53.226;10.400;2023-03-01T07:03:59;8.25;;;3.97;;
51312;SDS011;37397;53.226;10.400;2023-03-01T07:06:25;8.23;;;3.72;;
51312;SDS011;37397;53.226;10.400;2023-03-01T07:08:52;8.63;;;3.63;;
51312;SDS011;37397;53.226;10.400;2023-03-01T07:11:18;8.23;;;3.90;;
51312;SDS011;37397;53.226;10.400;2023-03-01T07:13:45;8.60;;;3.70;;
51312;SDS011;37397;53.226;10.400;2023-03-01T07:16:11;7.78;;;3.80;;
51312;SDS011;37397;53.226;10.400;2023-03-01T07:18:38;8.77;;;3.72;;
51312;SDS011;37397;53.226;10.400;2023-03-01T07:21:06;7.82;;;3.80;;
51312;SDS011;37397;53.226;10.400;2023-03-01T07:23:34;6.15;;;3.47;;
51312;SDS011;37397;53.226;10.400;2023-03-01T07:26:00;9.27;;;4.40;;
51312;SDS011;37397;53.226;10.400;2023-03-01T07:28:27;6.70;;;3.45;;
51312;SDS011;37397;53.226;10.400;2023-03-01T07:30:54;9.38;;;3.92;;
51312;SDS011;37397;53.226;10.400;2023-03-01T07:33:20;7.18;;;4.00;;
51312;SDS011;37397;53.226;10.400;2023-03-01T07:35:47;7.38;;;3.90;;
51312;SDS011;37397;53.226;10.400;2023-03-01T07:38:14;7.75;;;4.07;;
51312;SDS011;37397;53.226;10.400;2023-03-01T07:40:40;9.25;;;4.18;;
51312;SDS011;37397;53.226;10.400;2023-03-01T07:43:07;10.27;;;4.95;;
51312;SDS011;37397;53.226;10.400;2023-03-01T07:45:33;11.13;;;4.85;;
51312;SDS011;37397;53.226;10.400;2023-03-01T07:47:59;10.20;;;4.93;;
51312;SDS011;37397;53.226;10.400;2023-03-01T07:50:26;9.75;;;4.47;;
51312;SDS011;37397;53.226;10.400;2023-03-01T07:52:52;11.57;;;4.78;;
51312;SDS011;37397;53.226;10.400;2023-03-01T07:55:19;9.63;;;4.15;;
51312;SDS011;37397;53.226;10.400;2023-03-01T07:57:46;10.80;;;4.93;;
51312;SDS011;37397;53.226;10.400;2023-03-01T08:00:12;11.40;;;5.07;;
51312;SDS011;37397;53.226;10.400;2023-03-01T08:02:39;10.82;;;4.72;;
51312;SDS011;37397;53.226;10.400;2023-03-01T08:05:08;11.00;;;5.63;;
51312;SDS011;37397;53.226;10.400;2023-03-01T08:07:36;10.52;;;5.00;;
51312;SDS011;37397;53.226;10.400;2023-03-01T08:10:03;10.43;;;5.40;;
51312;SDS011;37397;53.226;10.400;2023-03-01T08:12:30;10.75;;;5.20;;
51312;SDS011;37397;53.226;10.400;2023-03-01T08:14:56;9.38;;;4.78;;
51312;SDS011;37397;53.226;10.400;2023-03-01T08:17:23;11.05;;;5.25;;
51312;SDS011;37397;53.226;10.400;2023-03-01T08:19:50;10.00;;;4.75;;
51312;SDS011;37397;53.226;10.400;2023-03-01T08:22:16;9.00;;;4.38;;
51312;SDS011;37397;53.226;10.400;2023-03-01T08:24:42;9.63;;;4.50;;
51312;SDS011;37397;53.226;10.400;2023-03-01T08:27:09;10.45;;;5.60;;
51312;SDS011;37397;53.226;10.400;2023-03-01T08:29:36;10.50;;;4.75;;
51312;SDS011;37397;53.226;10.400;2023-03-01T08:32:02;9.35;;;4.80;;
51312;SDS011;37397;53.226;10.400;2023-03-01T08:34:29;10.13;;;4.50;;
51312;SDS011;37397;53.226;10.400;2023-03-01T08:36:57;10.50;;;4.28;;
51312;SDS011;37397;53.226;10.400;2023-03-01T08:39:24;8.43;;;4.60;;
51312;SDS011;37397;53.226;10.400;2023-03-01T08:41:50;7.93;;;4.32;;
51312;SDS011;37397;53.226;10.400;2023-03-01T08:44:17;8.38;;;4.32;;
51312;SDS011;37397;53.226;10.400;2023-03-01T08:46:44;9.05;;;4.70;;
51312;SDS011;37397;53.226;10.400;2023-03-01T08:49:13;8.88;;;4.53;;
51312;SDS011;37397;53.226;10.400;2023-03-01T08:51:41;8.73;;;4.65;;
51312;SDS011;37397;53.226;10.400;2023-03-01T08:54:12;9.70;;;4.53;;
51312;SDS011;37397;53.226;10.400;2023-03-01T08:56:41;9.00;;;4.75;;
51312;SDS011;37397;53.226;10.400;2023-03-01T08:59:08;10.40;;;5.20;;
51312;SDS011;37397;53.226;10.400;2023-03-01T09:01:36;13.32;;;4.78;;
51312;SDS011;37397;53.226;10.400;2023-03-01T09:04:03;9.52;;;4.90;;
51312;SDS011;37397;53.226;10.400;2023-03-01T09:06:30;9.35;;;5.13;;
51312;SDS011;37397;53.226;10.400;2023-03-01T09:08:59;9.30;;;4.75;;
51312;SDS011;37397;53.226;10.400;2023-03-01T09:11:27;8.25;;;4.45;;
51312;SDS011;37397;53.226;10.400;2023-03-01T09:13:54;9.27;;;4.90;;
51312;SDS011;37397;53.226;10.400;2023-03-01T09:16:21;9.52;;;4.65;;
51312;SDS011;37397;53.226;10.400;2023-03-01T09:18:49;8.85;;;5.05;;
51312;SDS011;37397;53.226;10.400;2023-03-01T09:21:17;10.63;;;4.85;;
51312;SDS011;37397;53.226;10.400;2023-03-01T09:24:04;9.48;;;5.10;;
51312;SDS011;37397;53.226;10.400;2023-03-01T09:26:31;10.35;;;4.93;;
51312;SDS011;37397;53.226;10.400;2023-03-01T09:28:59;10.02;;;5.38;;
51312;SDS011;37397;53.226;10.400;2023-03-01T09:31:25;10.60;;;5.15;;
51312;SDS011;37397;53.226;10.400;2023-03-01T09:33:52;10.68;;;5.45;;
51312;SDS011;37397;53.226;10.400;2023-03-01T09:36:20;10.68;;;5.75;;
51312;SDS011;37397;53.226;10.400;2023-03-01T09:38:51;12.02;;;5.35;;
51312;SDS011;37397;53.226;10.400;2023-03-01T09:46:37;16.65;;;8.10;;
51312;SDS011;37397;53.226;10.400;2023-03-01T09:49:11;16.15;;;8.45;;
51312;SDS011;37397;53.226;10.400;2023-03-01T09:51:55;16.45;;;9.05;;
51312;SDS011;37397;53.226;10.400;2023-03-01T09:54:42;18.48;;;9.52;;
51312;SDS011;37397;53.226;10.400;2023-03-01T09:59:43;23.38;;;11.63;;
51312;SDS011;37397;53.226;10.400;2023-03-01T10:02:36;21.88;;;11.65;;
51312;SDS011;37397;53.226;10.400;2023-03-01T10:11:24;20.58;;;10.13;;
51312;SDS011;37397;53.226;10.400;2023-03-01T10:13:55;25.38;;;10.93;;
51312;SDS011;37397;53.226;10.400;2023-03-01T10:19:01;19.63;;;10.73;;
51312;SDS011;37397;53.226;10.400;2023-03-01T10:21:30;21.55;;;10.05;;
51312;SDS011;37397;53.226;10.400;2023-03-01T10:24:11;18.98;;;11.20;;
51312;SDS011;37397;53.226;10.400;2023-03-01T10:29:15;16.55;;;9.75;;
51312;SDS011;37397;53.226;10.400;2023-03-01T10:31:46;16.98;;;9.38;;
51312;SDS011;37397;53.226;10.400;2023-03-01T10:36:44;17.25;;;9.27;;
51312;SDS011;37397;53.226;10.400;2023-03-01T10:39:18;18.65;;;8.75;;
51312;SDS011;37397;53.226;10.400;2023-03-01T10:41:55;16.77;;;9.88;;
51312;SDS011;37397;53.226;10.400;2023-03-01T10:44:40;17.27;;;9.40;;
51312;SDS011;37397;53.226;10.400;2023-03-01T10:47:19;20.15;;;9.48;;
51312;SDS011;37397;53.226;10.400;2023-03-01T10:50:04;19.98;;;10.55;;
51312;SDS011;37397;53.226;10.400;2023-03-01T10:52:43;17.42;;;9.57;;
51312;SDS011;37397;53.226;10.400;2023-03-01T10:58:08;27.15;;;9.90;;
51312;SDS011;37397;53.226;10.400;2023-03-01T11:00:48;26.10;;;10.30;;
51312;SDS011;37397;53.226;10.400;2023-03-01T11:03:18;20.60;;;9.85;;
51312;SDS011;37397;53.226;10.400;2023-03-01T11:06:34;27.70;;;10.95;;
51312;SDS011;37397;53.226;10.400;2023-03-01T11:08:44;26.83;;;11.30;;
51312;SDS011;37397;53.226;10.400;2023-03-01T11:14:18;17.98;;;9.23;;
51312;SDS011;37397;53.226;10.400;2023-03-01T11:19:28;19.00;;;10.38;;
51312;SDS011;37397;53.226;10.400;2023-03-01T11:22:02;19.05;;;10.55;;
51312;SDS011;37397;53.226;10.400;2023-03-01T11:24:53;19.33;;;11.40;;
51312;SDS011;37397;53.226;10.400;2023-03-01T11:27:36;22.92;;;11.45;;
51312;SDS011;37397;53.226;10.400;2023-03-01T11:35:31;23.00;;;12.35;;
51312;SDS011;37397;53.226;10.400;2023-03-01T11:38:22;19.65;;;11.32;;
51312;SDS011;37397;53.226;10.400;2023-03-01T11:40:52;20.40;;;11.73;;
51312;SDS011;37397;53.226;10.400;2023-03-01T11:47:14;21.17;;;11.65;;
51312;SDS011;37397;53.226;10.400;2023-03-01T11:52:48;19.52;;;11.13;;
51312;SDS011;37397;53.226;10.400;2023-03-01T11:55:40;22.20;;;12.10;;
51312;SDS011;37397;53.226;10.400;2023-03-01T11:58:15;22.50;;;11.30;;
51312;SDS011;37397;53.226;10.400;2023-03-01T12:01:32;20.37;;;11.07;;
51312;SDS011;37397;53.226;10.400;2023-03-01T12:04:21;20.80;;;11.75;;
51312;SDS011;37397;53.226;10.400;2023-03-01T12:07:40;19.38;;;10.98;;
51312;SDS011;37397;53.226;10.400;2023-03-01T12:15:50;17.33;;;9.93;;
51312;SDS011;37397;53.226;10.400;2023-03-01T12:29:54;19.17;;;12.15;;
51312;SDS011;37397;53.226;10.400;2023-03-01T12:47:11;21.25;;;12.45;;
51312;SDS011;37397;53.226;10.400;2023-03-01T12:49:51;22.17;;;12.30;;
51312;SDS011;37397;53.226;10.400;2023-03-01T12:52:42;20.25;;;12.23;;
51312;SDS011;37397;53.226;10.400;2023-03-01T13:01:24;22.42;;;12.25;;
51312;SDS011;37397;53.226;10.400;2023-03-01T13:15:25;22.02;;;11.23;;
51312;SDS011;37397;53.226;10.400;2023-03-01T13:18:03;20.40;;;12.52;;
51312;SDS011;37397;53.226;10.400;2023-03-01T13:20:52;21.58;;;12.02;;
51312;SDS011;37397;53.226;10.400;2023-03-01T13:33:53;22.13;;;12.75;;
51312;SDS011;37397;53.226;10.400;2023-03-01T13:37:08;21.80;;;13.25;;
51312;SDS011;37397;53.226;10.400;2023-03-01T13:45:38;20.73;;;12.88;;
51312;SDS011;37397;53.226;10.400;2023-03-01T13:48:11;22.13;;;13.02;;
51312;SDS011;37397;53.226;10.400;2023-03-01T13:50:50;20.23;;;11.73;;
51312;SDS011;37397;53.226;10.400;2023-03-01T13:53:24;22.05;;;12.85;;
51312;SDS011;37397;53.226;10.400;2023-03-01T13:55:57;20.30;;;11.82;;
51312;SDS011;37397;53.226;10.400;2023-03-01T13:58:28;25.00;;;13.23;;
51312;SDS011;37397;53.226;10.400;2023-03-01T14:01:02;22.98;;;12.25;;
51312;SDS011;37397;53.226;10.400;2023-03-01T14:03:39;21.48;;;12.85;;
51312;SDS011;37397;53.226;10.400;2023-03-01T14:06:08;21.33;;;12.30;;
51312;SDS011;37397;53.226;10.400;2023-03-01T14:08:46;18.50;;;12.65;;
51312;SDS011;37397;53.226;10.400;2023-03-01T14:11:31;20.33;;;13.23;;
51312;SDS011;37397;53.226;10.400;2023-03-01T14:16:49;20.73;;;12.98;;
51312;SDS011;37397;53.226;10.400;2023-03-01T14:19:28;20.27;;;12.15;;
51312;SDS011;37397;53.226;10.400;2023-03-01T14:24:31;18.83;;;11.77;;
51312;SDS011;37397;53.226;10.400;2023-03-01T14:27:00;19.95;;;12.27;;
51312;SDS011;37397;53.226;10.400;2023-03-01T14:29:35;19.92;;;12.07;;
51312;SDS011;37397;53.226;10.400;2023-03-01T14:32:36;21.63;;;12.05;;
51312;SDS011;37397;53.226;10.400;2023-03-01T14:34:57;19.48;;;11.70;;
51312;SDS011;37397;53.226;10.400;2023-03-01T14:37:30;19.27;;;11.63;;
51312;SDS011;37397;53.226;10.400;2023-03-01T14:39:59;19.08;;;12.00;;
51312;SDS011;37397;53.226;10.400;2023-03-01T14:42:28;20.42;;;10.85;;
51312;SDS011;37397;53.226;10.400;2023-03-01T14:45:00;19.60;;;11.10;;
51312;SDS011;37397;53.226;10.400;2023-03-01T14:47:28;19.88;;;12.68;;
51312;SDS011;37397;53.226;10.400;2023-03-01T14:50:02;20.08;;;11.63;;
51312;SDS011;37397;53.226;10.400;2023-03-01T14:52:37;19.35;;;11.85;;
51312;SDS011;37397;53.226;10.400;2023-03-01T14:55:07;18.90;;;10.90;;
51312;SDS011;37397;53.226;10.400;2023-03-01T14:57:43;19.95;;;11.23;;
51312;SDS011;37397;53.226;10.400;2023-03-01T15:00:13;19.33;;;11.35;;
51312;SDS011;37397;53.226;10.400;2023-03-01T15:02:45;22.27;;;11.65;;
51312;SDS011;37397;53.226;10.400;2023-03-01T15:05:14;21.45;;;11.30;;
51312;SDS011;37397;53.226;10.400;2023-03-01T15:07:44;19.98;;;12.15;;
51312;SDS011;37397;53.226;10.400;2023-03-01T15:10:19;16.65;;;10.85;;
51312;SDS011;37397;53.226;10.400;2023-03-01T15:12:48;16.85;;;11.43;;
51312;SDS011;37397;53.226;10.400;2023-03-01T15:18:06;18.65;;;11.77;;
51312;SDS011;37397;53.226;10.400;2023-03-01T15:20:39;19.02;;;10.75;;
51312;SDS011;37397;53.226;10.400;2023-03-01T15:23:12;19.80;;;11.45;;
51312;SDS011;37397;53.226;10.400;2023-03-01T15:25:45;21.77;;;12.48;;
51312;SDS011;37397;53.226;10.400;2023-03-01T15:28:16;18.00;;;9.90;;
51312;SDS011;37397;53.226;10.400;2023-03-01T15:30:46;17.85;;;11.38;;
51312;SDS011;37397;53.226;10.400;2023-03-01T15:35:56;17.45;;;10.82;;
51312;SDS011;37397;53.226;10.400;2023-03-01T15:41:05;20.38;;;12.18;;
51312;SDS011;37397;53.226;10.400;2023-03-01T15:43:48;20.52;;;12.48;;
51312;SDS011;37397;53.226;10.400;2023-03-01T15:46:17;19.50;;;12.00;;
51312;SDS011;37397;53.226;10.400;2023-03-01T15:48:48;18.60;;;11.60;;
51312;SDS011;37397;53.226;10.400;2023-03-01T15:51:20;21.48;;;11.75;;
51312;SDS011;37397;53.226;10.400;2023-03-01T15:53:53;17.13;;;11.45;;
51312;SDS011;37397;53.226;10.400;2023-03-01T15:56:20;17.75;;;11.18;;
51312;SDS011;37397;53.226;10.400;2023-03-01T15:58:46;20.10;;;10.95;;
51312;SDS011;37397;53.226;10.400;2023-03-01T16:01:14;20.45;;;11.20;;
51312;SDS011;37397;53.226;10.400;2023-03-01T16:03:45;17.05;;;11.10;;
51312;SDS011;37397;53.226;10.400;2023-03-01T16:06:12;18.63;;;11.15;;
51312;SDS011;37397;53.226;10.400;2023-03-01T16:08:38;18.65;;;11.77;;
51312;SDS011;37397;53.226;10.400;2023-03-01T16:11:09;17.95;;;10.93;;
51312;SDS011;37397;53.226;10.400;2023-03-01T16:13:43;16.55;;;11.50;;
51312;SDS011;37397;53.226;10.400;2023-03-01T16:16:10;17.08;;;10.27;;
51312;SDS011;37397;53.226;10.400;2023-03-01T16:18:43;21.55;;;11.60;;
51312;SDS011;37397;53.226;10.400;2023-03-01T16:21:11;17.48;;;11.20;;
51312;SDS011;37397;53.226;10.400;2023-03-01T16:23:39;19.70;;;10.68;;
51312;SDS011;37397;53.226;10.400;2023-03-01T16:26:06;18.10;;;10.68;;
51312;SDS011;37397;53.226;10.400;2023-03-01T16:28:32;17.58;;;10.98;;
51312;SDS011;37397;53.226;10.400;2023-03-01T16:30:59;19.52;;;11.20;;
51312;SDS011;37397;53.226;10.400;2023-03-01T16:33:27;17.05;;;10.93;;
51312;SDS011;37397;53.226;10.400;2023-03-01T16:35:59;19.08;;;11.95;;
51312;SDS011;37397;53.226;10.400;2023-03-01T16:38:36;18.27;;;11.27;;
51312;SDS011;37397;53.226;10.400;2023-03-01T16:41:03;17.25;;;10.63;;
51312;SDS011;37397;53.226;10.400;2023-03-01T16:43:29;17.80;;;11.10;;
51312;SDS011;37397;53.226;10.400;2023-03-01T16:45:56;17.73;;;10.63;;
51312;SDS011;37397;53.226;10.400;2023-03-01T16:48:25;18.58;;;11.20;;
51312;SDS011;37397;53.226;10.400;2023-03-01T16:50:58;17.23;;;10.77;;
51312;SDS011;37397;53.226;10.400;2023-03-01T16:53:27;20.20;;;11.23;;
51312;SDS011;37397;53.226;10.400;2023-03-01T16:55:55;19.23;;;11.25;;
51312;SDS011;37397;53.226;10.400;2023-03-01T16:58:23;19.17;;;11.73;;
51312;SDS011;37397;53.226;10.400;2023-03-01T17:00:52;19.13;;;10.90;;